Time;durP1;ratioP1;P1;durP2;ratioP2;P2;SDS_P1;SDS_P2;PMS_P1;PMS_P2;Temp;Humidity;BMP_temperature;BMP_pressure;BME280_temperature;BME280_humidity;BME280_pressure;Samples;Min_cycle;Max_cycle;Signal;HPM_P1;HPM_P2
2022/08/17 00:00:18;;;;;;;8.83;3.70;;;17.00;99.90;;;;;;5012793;28;20422;-68
2022/08/17 00:03:01;;;;;;;14.10;4.33;;;17.00;99.90;;;;;;5012438;28;20167;-68
2022/08/17 00:05:32;;;;;;;8.00;4.13;;;17.00;99.90;;;;;;5012803;28;20406;-68
2022/08/17 00:07:57;;;;;;;6.30;3.57;;;17.00;99.90;;;;;;5012733;28;20933;-67
2022/08/17 00:10:23;;;;;;;5.53;4.07;;;17.00;99.90;;;;;;5012969;28;20418;-68
2022/08/17 00:12:50;;;;;;;12.10;3.80;;;17.00;99.90;;;;;;5012392;28;20579;-68
2022/08/17 00:15:17;;;;;;;5.67;3.30;;;17.00;99.90;;;;;;5013077;28;20175;-68
2022/08/17 00:17:46;;;;;;;6.50;3.57;;;16.90;99.90;;;;;;5012743;28;20488;-68
2022/08/17 00:20:12;;;;;;;5.07;2.90;;;16.90;99.90;;;;;;5013031;28;20414;-68
2022/08/17 00:22:38;;;;;;;7.27;3.60;;;16.90;99.90;;;;;;5012233;28;20418;-68
2022/08/17 00:25:09;;;;;;;6.23;3.23;;;16.80;99.90;;;;;;5013032;28;20502;-68
2022/08/17 00:27:35;;;;;;;12.07;4.27;;;16.80;99.90;;;;;;5012887;28;20745;-67
2022/08/17 00:30:01;;;;;;;5.87;3.43;;;16.80;99.90;;;;;;5012577;28;20909;-68
2022/08/17 00:32:27;;;;;;;6.70;2.57;;;16.70;99.90;;;;;;5012461;28;20410;-68
2022/08/17 00:34:52;;;;;;;5.40;2.77;;;16.70;99.90;;;;;;5012691;28;20179;-68
2022/08/17 00:37:18;;;;;;;5.30;3.17;;;16.70;99.90;;;;;;5012306;28;20199;-68
2022/08/17 00:39:43;;;;;;;5.00;2.90;;;16.70;99.90;;;;;;5012683;28;20612;-68
2022/08/17 00:42:17;;;;;;;4.67;3.20;;;16.60;99.90;;;;;;5012213;28;20178;-67
2022/08/17 00:44:43;;;;;;;5.10;3.30;;;16.60;99.90;;;;;;5012422;28;20266;-68
2022/08/17 00:47:09;;;;;;;4.80;2.60;;;16.60;99.90;;;;;;5012527;28;20504;-68
2022/08/17 00:49:34;;;;;;;5.37;3.03;;;16.60;99.90;;;;;;5012407;28;20198;-67
2022/08/17 00:52:07;;;;;;;5.23;2.90;;;16.60;99.90;;;;;;5012507;28;20178;-67
2022/08/17 00:54:37;;;;;;;5.87;3.20;;;16.60;99.90;;;;;;5016400;28;20515;-68
2022/08/17 00:57:34;;;;;;;5.40;3.30;;;16.50;99.90;;;;;;5016192;28;20938;-67
2022/08/17 01:00:15;;;;;;;5.10;3.40;;;16.50;99.90;;;;;;5016325;28;20402;-68
2022/08/17 01:02:43;;;;;;;9.30;4.00;;;16.50;99.90;;;;;;5015986;28;20406;-67
2022/08/17 01:05:16;;;;;;;5.90;3.10;;;16.50;99.90;;;;;;5016059;28;20452;-68
2022/08/17 01:07:43;;;;;;;9.30;4.13;;;16.40;99.90;;;;;;5016077;28;20398;-68
2022/08/17 01:10:11;;;;;;;5.60;3.20;;;16.40;99.90;;;;;;5015967;28;20428;-68
2022/08/17 01:12:37;;;;;;;5.97;3.80;;;16.40;99.90;;;;;;5015490;28;20480;-68
2022/08/17 01:15:04;;;;;;;6.27;3.77;;;16.40;99.90;;;;;;5015986;28;20856;-67
2022/08/17 01:17:30;;;;;;;6.10;3.67;;;16.40;99.90;;;;;;5015810;28;20207;-68
2022/08/17 01:19:56;;;;;;;7.43;3.40;;;16.40;99.90;;;;;;5015767;28;20418;-68
2022/08/17 01:22:25;;;;;;;10.77;4.07;;;16.40;99.90;;;;;;5015305;28;20419;-67
2022/08/17 01:24:58;;;;;;;6.07;3.13;;;16.40;99.90;;;;;;5015626;28;20502;-67
2022/08/17 01:27:25;;;;;;;4.63;3.23;;;16.40;99.90;;;;;;5015898;28;20410;-68
2022/08/17 01:29:57;;;;;;;7.13;3.40;;;16.40;99.90;;;;;;5015733;28;20402;-67
2022/08/17 01:32:24;;;;;;;6.93;3.50;;;16.40;99.90;;;;;;5015261;28;20425;-68
2022/08/17 01:34:50;;;;;;;8.00;4.00;;;16.40;99.90;;;;;;5015373;28;20417;-67
2022/08/17 01:37:17;;;;;;;9.53;3.77;;;16.40;99.90;;;;;;5015617;28;20453;-68
2022/08/17 01:39:54;;;;;;;6.40;3.63;;;16.40;99.90;;;;;;5015663;28;20410;-68
2022/08/17 01:42:32;;;;;;;9.60;3.10;;;16.40;99.90;;;;;;5015230;28;20418;-68
2022/08/17 01:45:06;;;;;;;6.50;3.00;;;16.40;99.90;;;;;;5015671;28;20785;-68
2022/08/17 01:47:32;;;;;;;7.30;3.30;;;16.50;99.90;;;;;;5015712;28;20462;-67
2022/08/17 01:50:02;;;;;;;7.90;3.70;;;16.50;99.90;;;;;;5015395;28;20774;-67
2022/08/17 01:52:28;;;;;;;4.87;3.20;;;16.40;99.90;;;;;;5014404;28;20163;-68
2022/08/17 01:54:54;;;;;;;5.90;3.50;;;16.40;99.90;;;;;;5015485;28;20420;-68
2022/08/17 01:57:19;;;;;;;5.00;3.37;;;16.40;99.90;;;;;;5015228;28;20215;-67
2022/08/17 01:59:45;;;;;;;5.47;3.47;;;16.40;99.90;;;;;;5015247;28;20178;-67
2022/08/17 02:02:11;;;;;;;5.73;3.40;;;16.40;99.90;;;;;;5014655;28;20175;-68
2022/08/17 02:04:36;;;;;;;5.30;3.00;;;16.40;99.90;;;;;;5015133;28;20179;-67
2022/08/17 02:07:02;;;;;;;7.87;3.20;;;16.40;99.90;;;;;;5015095;28;20618;-67
2022/08/17 02:09:28;;;;;;;5.20;2.57;;;16.40;99.90;;;;;;5015024;28;20258;-68
2022/08/17 02:11:57;;;;;;;7.53;4.37;;;16.40;99.90;;;;;;5014684;28;20183;-68
2022/08/17 02:14:23;;;;;;;5.27;3.33;;;16.50;99.90;;;;;;5014992;28;20417;-68
2022/08/17 02:16:49;;;;;;;4.80;2.90;;;16.40;99.90;;;;;;5014922;28;20453;-67
2022/08/17 02:19:15;;;;;;;4.87;2.87;;;16.50;99.90;;;;;;5014776;28;20414;-68
2022/08/17 02:21:46;;;;;;;5.73;3.27;;;16.50;99.90;;;;;;5014593;28;20669;-68
2022/08/17 02:24:33;;;;;;;4.90;3.10;;;16.40;99.90;;;;;;5014560;28;20949;-67
2022/08/17 02:26:58;;;;;;;5.50;3.00;;;16.40;99.90;;;;;;5014736;28;20441;-68
2022/08/17 02:29:25;;;;;;;5.20;3.10;;;16.40;99.90;;;;;;5014571;28;20418;-68
2022/08/17 02:31:51;;;;;;;8.03;3.93;;;16.40;99.90;;;;;;5014297;28;20174;-68
2022/08/17 02:34:17;;;;;;;5.53;3.80;;;16.40;99.90;;;;;;5014306;28;20410;-68
2022/08/17 02:36:42;;;;;;;7.70;4.00;;;16.30;99.90;;;;;;5014600;28;20887;-68
2022/08/17 02:39:10;;;;;;;4.97;2.83;;;16.30;99.90;;;;;;5014392;28;20167;-67
2022/08/17 02:41:37;;;;;;;5.07;3.17;;;16.20;99.90;;;;;;5014067;28;20180;-68
2022/08/17 02:44:03;;;;;;;7.37;3.73;;;16.10;99.90;;;;;;5014525;28;20509;-67
2022/08/17 02:46:29;;;;;;;6.03;3.50;;;16.10;99.90;;;;;;5014420;28;20418;-68
2022/08/17 02:48:55;;;;;;;5.60;3.27;;;16.00;99.90;;;;;;5014287;28;20417;-68
2022/08/17 02:51:21;;;;;;;10.53;3.60;;;16.00;99.90;;;;;;5013548;28;20414;-68
2022/08/17 02:53:47;;;;;;;5.53;2.93;;;16.00;99.90;;;;;;5014265;28;20600;-68
2022/08/17 02:56:12;;;;;;;6.13;3.93;;;16.00;99.90;;;;;;5013804;28;20457;-67
2022/08/17 02:58:38;;;;;;;7.43;3.83;;;16.00;99.90;;;;;;5014021;28;20237;-68
2022/08/17 03:01:06;;;;;;;6.70;3.20;;;16.00;99.90;;;;;;5013600;28;20206;-67
2022/08/17 03:03:32;;;;;;;5.70;4.10;;;15.90;99.90;;;;;;5013944;28;20214;-67
2022/08/17 03:05:58;;;;;;;7.50;3.63;;;16.00;99.90;;;;;;5013818;28;20410;-68
2022/08/17 03:08:24;;;;;;;5.77;3.33;;;16.00;99.90;;;;;;5013870;28;20804;-68
2022/08/17 03:10:50;;;;;;;6.77;3.87;;;15.90;99.90;;;;;;5013788;28;20183;-67
2022/08/17 03:13:15;;;;;;;7.47;2.87;;;15.90;99.90;;;;;;5012030;28;20195;-68
2022/08/17 03:15:44;;;;;;;10.50;3.37;;;15.90;99.90;;;;;;5013069;28;20198;-67
2022/08/17 03:18:14;;;;;;;6.40;2.87;;;16.00;99.90;;;;;;5013933;28;20171;-68
2022/08/17 03:20:40;;;;;;;6.63;3.10;;;16.00;99.90;;;;;;5013884;28;20410;-68
2022/08/17 03:23:07;;;;;;;5.60;3.10;;;16.00;99.90;;;;;;5013712;28;21097;-67
2022/08/17 03:25:36;;;;;;;5.60;3.40;;;15.90;99.90;;;;;;5013661;28;20412;-67
2022/08/17 03:28:02;;;;;;;11.50;3.43;;;16.00;99.90;;;;;;5013695;28;20961;-67
2022/08/17 03:30:28;;;;;;;6.83;3.27;;;15.90;99.90;;;;;;5013460;28;20943;-67
2022/08/17 03:32:56;;;;;;;4.50;3.13;;;15.90;99.90;;;;;;5011962;28;20430;-67
2022/08/17 03:35:25;;;;;;;4.07;2.63;;;16.00;99.90;;;;;;5013513;28;20167;-68
2022/08/17 03:37:51;;;;;;;4.90;2.80;;;15.90;99.90;;;;;;5013433;28;20496;-67
2022/08/17 03:40:17;;;;;;;4.80;3.47;;;15.90;99.90;;;;;;5013083;28;20413;-68
2022/08/17 03:42:43;;;;;;;4.73;3.00;;;15.90;99.90;;;;;;5012828;28;20493;-68
2022/08/17 03:45:16;;;;;;;5.57;3.10;;;15.80;99.90;;;;;;5013245;28;20178;-67
2022/08/17 03:58:46;;;;;;;5.03;2.80;;;15.80;99.90;;;;;;5013295;28;20482;-68
2022/08/17 04:01:12;;;;;;;4.13;2.90;;;15.70;99.90;;;;;;5012446;28;20410;-67
2022/08/17 04:03:37;;;;;;;5.93;3.60;;;15.70;99.90;;;;;;5012772;28;20441;-68
2022/08/17 04:06:04;;;;;;;5.67;3.37;;;15.70;99.90;;;;;;5012950;28;20489;-68
2022/08/17 04:08:30;;;;;;;7.13;3.27;;;15.70;99.90;;;;;;5012893;28;20180;-67
2022/08/17 04:10:56;;;;;;;7.53;2.90;;;15.80;99.90;;;;;;5012598;28;20414;-68
2022/08/17 04:13:22;;;;;;;8.10;3.70;;;15.80;99.90;;;;;;5012492;28;20740;-67
2022/08/17 04:15:48;;;;;;;6.50;3.57;;;15.80;99.90;;;;;;5012505;28;20418;-67
2022/08/17 04:18:17;;;;;;;11.80;4.33;;;15.80;99.90;;;;;;5012801;28;20183;-68
2022/08/17 04:20:43;;;;;;;8.73;3.67;;;15.80;99.90;;;;;;5012647;28;20258;-68
2022/08/17 04:23:15;;;;;;;4.80;3.30;;;15.80;99.90;;;;;;5012214;28;20556;-67
2022/08/17 04:25:45;;;;;;;6.83;3.90;;;15.80;99.90;;;;;;5012164;28;20410;-68
2022/08/17 04:28:11;;;;;;;10.20;3.70;;;15.90;99.90;;;;;;5011986;28;20418;-68
2022/08/17 04:30:38;;;;;;;7.87;3.97;;;15.80;99.90;;;;;;5012496;28;20402;-68
2022/08/17 04:33:09;;;;;;;6.90;3.70;;;15.90;99.90;;;;;;5012291;28;20618;-68
2022/08/17 04:35:40;;;;;;;8.73;4.00;;;15.90;99.90;;;;;;5012526;28;20395;-68
2022/08/17 04:38:08;;;;;;;6.13;3.77;;;16.00;99.90;;;;;;5012529;28;20403;-67
2022/08/17 04:43:21;;;;;;;8.67;3.57;;;16.20;99.90;;;;;;5012472;28;20397;-67
2022/08/17 04:45:50;;;;;;;7.83;3.70;;;16.20;99.90;;;;;;5012597;28;20418;-67
2022/08/17 04:48:15;;;;;;;7.83;3.83;;;16.30;99.90;;;;;;5012853;28;20485;-67
2022/08/17 04:50:47;;;;;;;8.83;4.00;;;16.30;99.90;;;;;;5012066;28;20822;-68
2022/08/17 04:53:14;;;;;;;13.30;3.50;;;16.40;99.90;;;;;;5012377;28;20178;-67
2022/08/17 04:55:40;;;;;;;5.40;3.00;;;16.50;99.90;;;;;;5012618;28;20533;-67
2022/08/17 04:58:06;;;;;;;5.80;3.27;;;16.60;99.90;;;;;;5012456;28;21001;-67
2022/08/17 05:00:32;;;;;;;4.33;2.90;;;16.60;99.90;;;;;;5012510;28;20223;-67
2022/08/17 05:02:58;;;;;;;6.40;4.27;;;16.70;99.90;;;;;;5011955;28;20558;-67
2022/08/17 05:05:27;;;;;;;7.40;3.50;;;16.80;99.90;;;;;;5012395;28;20832;-67
2022/08/17 05:07:54;;;;;;;7.57;3.63;;;16.90;99.90;;;;;;5012243;28;20800;-68
2022/08/17 05:10:27;;;;;;;9.80;4.90;;;17.00;99.90;;;;;;5012286;28;20414;-67
2022/08/17 05:13:22;;;;;;;6.33;3.53;;;17.10;99.90;;;;;;5011843;28;20535;-67
2022/08/17 05:15:52;;;;;;;5.13;3.20;;;17.20;99.90;;;;;;5011801;28;20472;-67
2022/08/17 05:18:17;;;;;;;6.27;3.80;;;17.40;99.90;;;;;;5012201;28;20406;-67
2022/08/17 05:20:44;;;;;;;7.57;3.73;;;17.50;99.90;;;;;;5012147;28;20413;-67
2022/08/17 05:23:13;;;;;;;7.67;4.40;;;17.50;99.90;;;;;;5011640;28;20185;-68
2022/08/17 05:25:43;;;;;;;4.40;3.03;;;17.60;99.90;;;;;;5012238;28;20406;-67
2022/08/17 05:28:10;;;;;;;6.43;3.90;;;17.60;99.90;;;;;;5011946;28;20394;-68
2022/08/17 05:30:38;;;;;;;12.70;3.73;;;17.60;99.90;;;;;;5011982;28;20465;-67
2022/08/17 05:33:06;;;;;;;4.80;3.00;;;17.70;99.90;;;;;;5011650;28;20914;-67
2022/08/17 05:35:34;;;;;;;8.93;3.27;;;17.70;99.90;;;;;;5011906;28;20740;-68
2022/08/17 05:38:00;;;;;;;6.83;3.80;;;17.80;99.90;;;;;;5013144;28;20421;-67
2022/08/17 05:40:26;;;;;;;4.77;3.03;;;17.90;99.90;;;;;;5015382;28;20427;-67
2022/08/17 05:43:04;;;;;;;6.10;3.57;;;18.00;99.90;;;;;;5014881;28;20398;-67
2022/08/17 05:45:31;;;;;;;5.27;3.37;;;18.10;99.90;;;;;;5015435;28;20418;-69
2022/08/17 05:47:57;;;;;;;5.27;3.07;;;18.20;99.90;;;;;;5015437;28;20410;-67
2022/08/17 05:50:27;;;;;;;14.70;4.20;;;18.30;99.90;;;;;;5014951;28;20398;-67
2022/08/17 05:53:26;;;;;;;5.30;3.30;;;18.40;99.90;;;;;;5014594;28;20398;-67
2022/08/17 05:56:06;;;;;;;5.97;3.07;;;18.50;99.90;;;;;;5015109;28;20413;-67
2022/08/17 05:58:35;;;;;;;7.50;3.60;;;18.60;99.90;;;;;;5014905;28;20498;-67
2022/08/17 06:01:20;;;;;;;6.50;3.60;;;18.60;99.90;;;;;;5014451;28;20402;-67
2022/08/17 06:03:49;;;;;;;6.27;3.07;;;18.70;99.90;;;;;;5014786;28;20413;-67
2022/08/17 06:06:14;;;;;;;9.63;3.83;;;18.70;99.90;;;;;;5015030;28;20915;-67
2022/08/17 06:08:54;;;;;;;5.13;2.97;;;18.80;99.90;;;;;;5015060;28;20442;-68
2022/08/17 06:11:59;;;;;;;7.70;3.97;;;18.90;99.90;;;;;;5014520;28;20225;-67
2022/08/17 06:14:37;;;;;;;9.07;4.00;;;19.00;99.90;;;;;;5014429;28;20766;-67
2022/08/17 06:17:09;;;;;;;5.47;3.47;;;19.30;99.90;;;;;;5015048;28;20450;-67
2022/08/17 06:19:43;;;;;;;7.33;4.27;;;19.50;99.90;;;;;;5014869;28;20418;-67
2022/08/17 06:22:14;;;;;;;7.37;4.23;;;19.70;99.90;;;;;;5014401;28;20430;-67
2022/08/17 06:24:51;;;;;;;14.63;5.40;;;19.90;99.70;;;;;;5014863;28;20895;-67
2022/08/17 06:27:23;;;;;;;7.03;3.60;;;20.00;99.60;;;;;;5014641;28;20481;-67
2022/08/17 06:29:56;;;;;;;4.93;3.73;;;20.10;99.30;;;;;;5014701;28;20406;-67
2022/08/17 06:32:23;;;;;;;5.50;3.20;;;20.30;99.40;;;;;;5014321;28;20492;-68
2022/08/17 06:34:51;;;;;;;5.67;3.30;;;20.50;97.80;;;;;;5014554;28;20406;-68
2022/08/17 06:37:28;;;;;;;5.30;3.10;;;20.70;96.80;;;;;;5014221;28;20473;-67
2022/08/17 06:40:32;;;;;;;4.40;2.87;;;20.80;96.10;;;;;;5014492;28;20401;-68
2022/08/17 06:43:12;;;;;;;9.40;3.20;;;21.00;96.40;;;;;;5013980;28;20501;-67
2022/08/17 06:45:48;;;;;;;10.60;3.70;;;21.00;96.40;;;;;;5014049;28;20402;-67
2022/08/17 06:48:23;;;;;;;4.50;2.73;;;21.10;96.30;;;;;;5014355;28;20406;-67
2022/08/17 06:50:58;;;;;;;5.80;3.07;;;21.10;95.70;;;;;;5012407;28;20409;-67
2022/08/17 06:53:42;;;;;;;4.53;2.73;;;21.20;95.40;;;;;;5014086;28;20444;-67
2022/08/17 06:56:12;;;;;;;4.43;2.50;;;21.40;95.20;;;;;;5014235;28;20453;-67
2022/08/17 06:58:40;;;;;;;4.40;2.70;;;21.50;94.70;;;;;;5014037;28;20513;-68
2022/08/17 07:01:34;;;;;;;5.70;3.30;;;21.70;93.50;;;;;;5013298;28;20449;-68
2022/08/17 07:04:06;;;;;;;4.40;2.60;;;21.90;93.70;;;;;;5013562;28;20426;-68
2022/08/17 07:06:46;;;;;;;5.77;2.80;;;22.20;93.60;;;;;;5013970;28;20414;-67
2022/08/17 07:09:24;;;;;;;7.80;3.17;;;22.50;92.60;;;;;;5013676;28;20406;-68
2022/08/17 07:11:54;;;;;;;6.37;3.93;;;22.90;92.00;;;;;;5013230;28;20425;-68
2022/08/17 07:14:41;;;;;;;6.10;3.27;;;23.30;92.00;;;;;;5013675;28;20398;-68
2022/08/17 07:17:12;;;;;;;4.20;2.40;;;23.60;90.70;;;;;;5013620;28;20453;-67
2022/08/17 07:19:40;;;;;;;5.90;3.03;;;23.90;90.40;;;;;;5013484;28;20409;-67
2022/08/17 07:22:24;;;;;;;5.23;3.07;;;24.20;90.20;;;;;;5013149;28;20500;-68
2022/08/17 07:24:57;;;;;;;5.87;3.67;;;24.80;89.70;;;;;;4974561;28;20429;-68
2022/08/17 07:27:30;;;;;;;4.43;2.40;;;25.00;86.00;;;;;;4974418;28;20396;-68
2022/08/17 07:30:04;;;;;;;4.53;2.80;;;25.00;86.80;;;;;;4974572;28;20411;-68
2022/08/17 07:32:36;;;;;;;8.30;2.70;;;24.70;86.50;;;;;;4974881;28;20538;-68
2022/08/17 07:35:09;;;;;;;6.43;3.50;;;24.80;85.20;;;;;;4975804;28;20396;-68
2022/08/17 07:37:37;;;;;;;5.50;3.20;;;25.30;82.80;;;;;;4975787;28;20491;-68
2022/08/17 07:40:22;;;;;;;8.97;3.40;;;25.40;81.50;;;;;;4975695;28;20503;-68
2022/08/17 07:43:14;;;;;;;5.30;3.00;;;25.50;81.50;;;;;;4975446;28;20398;-67
2022/08/17 07:49:02;;;;;;;4.27;2.73;;;24.80;81.60;;;;;;4975140;28;20407;-68
2022/08/17 07:51:57;;;;;;;4.50;2.10;;;24.70;82.60;;;;;;4974040;28;20418;-68
2022/08/17 07:54:34;;;;;;;6.73;2.70;;;24.50;83.20;;;;;;4975020;28;20907;-68
2022/08/17 07:57:21;;;;;;;5.30;2.47;;;24.40;84.40;;;;;;5002982;28;20966;-68
2022/08/17 07:59:59;;;;;;;7.90;2.93;;;24.80;83.00;;;;;;5013194;28;20432;-68
2022/08/17 08:02:29;;;;;;;6.90;2.67;;;24.90;82.40;;;;;;5012591;28;20401;-68
2022/08/17 08:05:18;;;;;;;3.27;2.33;;;24.80;82.20;;;;;;5013125;28;20815;-68
2022/08/17 08:07:46;;;;;;;3.73;2.57;;;24.50;82.40;;;;;;5012333;28;20891;-68
2022/08/17 08:10:25;;;;;;;4.40;2.80;;;24.30;83.60;;;;;;5012959;28;20468;-68
2022/08/17 08:13:14;;;;;;;2.83;2.13;;;23.90;83.20;;;;;;5012567;28;20425;-68
2022/08/17 08:15:48;;;;;;;5.10;2.30;;;23.70;83.60;;;;;;5012747;28;20902;-68
2022/08/17 08:18:21;;;;;;;4.83;2.70;;;23.50;83.90;;;;;;5012633;28;20965;-68
2022/08/17 08:21:10;;;;;;;4.67;2.67;;;23.40;84.60;;;;;;5012622;28;20413;-68
2022/08/17 08:23:36;;;;;;;4.00;2.10;;;23.30;84.70;;;;;;5012576;28;20529;-68
2022/08/17 08:27:00;;;;;;;3.13;2.30;;;23.10;86.00;;;;;;5012510;28;20524;-68
2022/08/17 08:29:40;;;;;;;9.53;3.53;;;23.00;86.60;;;;;;5001547;28;20192;-68
2022/08/17 08:32:43;;;;;;;10.23;3.00;;;22.90;88.50;;;;;;5011904;28;20415;-68
2022/08/17 08:35:16;;;;;;;4.63;2.90;;;22.90;90.30;;;;;;5012260;28;20389;-67
2022/08/17 08:37:54;;;;;;;6.50;2.97;;;22.80;90.80;;;;;;5012290;28;20461;-68
2022/08/17 08:40:53;;;;;;;4.77;2.90;;;22.70;90.70;;;;;;5012207;28;20956;-68
2022/08/17 08:43:45;;;;;;;6.93;2.73;;;22.50;90.80;;;;;;5012167;28;20391;-68
2022/08/17 08:46:45;;;;;;;6.10;3.17;;;22.50;91.40;;;;;;5012411;28;20402;-68
2022/08/17 08:49:39;;;;;;;7.37;3.10;;;22.40;91.20;;;;;;5012428;28;20398;-68
2022/08/17 08:52:33;;;;;;;4.47;2.97;;;22.40;91.60;;;;;;5011079;28;20402;-68
2022/08/17 08:55:07;;;;;;;5.70;3.37;;;22.50;91.60;;;;;;5001814;28;20472;-68
2022/08/17 08:57:39;;;;;;;4.87;2.73;;;22.50;91.80;;;;;;5012143;28;20877;-68
2022/08/17 09:00:09;;;;;;;7.93;3.03;;;22.50;91.70;;;;;;5012381;28;20406;-68
2022/08/17 09:03:09;;;;;;;4.33;2.93;;;22.50;92.60;;;;;;5011718;28;20413;-68
2022/08/17 09:05:46;;;;;;;6.80;2.90;;;22.50;92.70;;;;;;5012160;28;20430;-68
2022/08/17 09:08:50;;;;;;;15.83;3.50;;;22.40;93.20;;;;;;5012301;28;20409;-67
2022/08/17 09:11:39;;;;;;;5.03;3.07;;;22.20;94.50;;;;;;5011805;28;20867;-67
2022/08/17 09:14:16;;;;;;;27.57;3.60;;;22.00;96.40;;;;;;5015423;28;20417;-67
2022/08/17 09:17:00;;;;;;;5.70;3.33;;;21.70;98.70;;;;;;5016368;28;20953;-67
2022/08/17 09:19:33;;;;;;;8.70;4.13;;;21.50;99.90;;;;;;5015854;28;20417;-68
2022/08/17 09:22:21;;;;;;;8.87;3.40;;;21.30;99.90;;;;;;5015832;28;20402;-67
2022/08/17 09:24:55;;;;;;;10.93;4.37;;;21.10;99.90;;;;;;4976955;28;20413;-67
2022/08/17 09:27:29;;;;;;;6.30;3.40;;;20.90;99.90;;;;;;4976854;28;20407;-67
2022/08/17 09:30:01;;;;;;;25.93;9.03;;;20.80;99.90;;;;;;4976802;28;20440;-67
2022/08/17 09:32:37;;;;;;;7.03;3.63;;;20.70;99.90;;;;;;4976391;28;20400;-67
2022/08/17 09:35:26;;;;;;;6.60;3.40;;;20.60;99.90;;;;;;4976994;28;20794;-67
2022/08/17 09:38:12;;;;;;;5.03;3.13;;;20.40;99.90;;;;;;4976679;28;20459;-67
2022/08/17 09:40:54;;;;;;;8.80;3.83;;;20.40;99.90;;;;;;4976513;28;20725;-67
2022/08/17 09:43:43;;;;;;;13.33;4.97;;;20.40;99.90;;;;;;4976428;28;20892;-68
2022/08/17 09:46:19;;;;;;;12.73;3.60;;;20.50;99.90;;;;;;4976505;28;20418;-67
2022/08/17 09:49:09;;;;;;;8.27;4.50;;;20.50;99.90;;;;;;4976212;28;20412;-67
2022/08/17 09:51:43;;;;;;;12.70;3.90;;;20.60;99.90;;;;;;4975186;28;20434;-67
2022/08/17 09:54:22;;;;;;;5.67;3.20;;;20.80;99.90;;;;;;4976317;28;20415;-68
2022/08/17 09:57:12;;;;;;;5.03;3.23;;;21.10;99.90;;;;;;4975981;28;20482;-67
2022/08/17 09:59:52;;;;;;;5.43;3.20;;;21.30;99.90;;;;;;4976037;28;20905;-67
2022/08/17 10:02:52;;;;;;;5.50;3.70;;;21.40;99.90;;;;;;4975762;28;20499;-67
2022/08/17 10:05:27;;;;;;;5.50;3.63;;;21.60;99.90;;;;;;4975943;28;20406;-67
2022/08/17 10:08:30;;;;;;;8.83;4.30;;;21.80;99.90;;;;;;4976176;28;20394;-68
2022/08/17 10:11:11;;;;;;;9.40;3.83;;;22.00;99.90;;;;;;4975725;28;20419;-68
2022/08/17 10:13:55;;;;;;;6.53;3.10;;;22.20;99.90;;;;;;4975834;28;20442;-68
2022/08/17 10:16:48;;;;;;;4.23;2.90;;;22.30;99.90;;;;;;4975851;28;20494;-67
2022/08/17 10:19:25;;;;;;;5.47;2.57;;;22.30;99.90;;;;;;4975727;28;20909;-67
2022/08/17 10:27:50;;;;;;;4.77;2.67;;;22.20;99.60;;;;;;4975588;28;20407;-67
2022/08/17 10:30:19;;;;;;;9.00;2.50;;;22.00;99.30;;;;;;4975538;28;20412;-67
2022/08/17 10:33:01;;;;;;;5.30;2.80;;;21.90;99.90;;;;;;4975109;28;20916;-67
2022/08/17 10:35:57;;;;;;;7.33;2.87;;;21.80;99.90;;;;;;4975543;28;20491;-67
2022/08/17 10:38:35;;;;;;;6.30;3.20;;;21.70;99.90;;;;;;4975266;28;20440;-68
2022/08/17 10:41:15;;;;;;;4.90;2.93;;;21.60;99.90;;;;;;4975097;28;20458;-67
2022/08/17 10:43:43;;;;;;;6.40;3.37;;;21.60;99.90;;;;;;4975406;28;20471;-67
2022/08/17 10:46:34;;;;;;;5.60;3.17;;;21.60;99.90;;;;;;4975298;28;20404;-67
2022/08/17 10:49:17;;;;;;;15.03;3.00;;;21.60;99.90;;;;;;4975246;28;20412;-67
2022/08/17 10:51:53;;;;;;;5.00;2.70;;;21.60;99.90;;;;;;4974166;28;20416;-68
2022/08/17 10:54:24;;;;;;;5.17;2.50;;;21.60;99.90;;;;;;4975283;28;20426;-67
2022/08/17 10:56:55;;;;;;;5.33;3.23;;;21.60;99.30;;;;;;5000920;28;21186;-67
2022/08/17 10:59:36;;;;;;;3.47;2.30;;;21.50;99.90;;;;;;5014134;28;20409;-67
2022/08/17 11:02:11;;;;;;;3.90;2.67;;;21.30;99.90;;;;;;5013743;28;20413;-66
2022/08/17 11:04:46;;;;;;;11.47;3.33;;;21.20;99.90;;;;;;5014159;28;20405;-67
2022/08/17 11:07:30;;;;;;;15.20;3.70;;;21.20;99.90;;;;;;5014174;28;20390;-66
2022/08/17 11:10:20;;;;;;;4.77;3.07;;;21.10;99.90;;;;;;5014148;28;20429;-67
2022/08/17 11:12:48;;;;;;;6.70;3.37;;;21.00;99.90;;;;;;5013554;28;20541;-67
2022/08/17 11:15:14;;;;;;;4.90;2.80;;;20.90;99.90;;;;;;5013735;28;20410;-67
2022/08/17 11:18:38;;;;;;;7.60;3.00;;;20.80;99.90;;;;;;5013637;28;20457;-67
2022/08/17 11:21:32;;;;;;;5.00;2.70;;;20.70;99.90;;;;;;4995555;28;20632;-67
2022/08/17 11:24:03;;;;;;;3.60;2.20;;;20.70;99.90;;;;;;5013466;28;20882;-67
2022/08/17 11:26:34;;;;;;;7.07;2.93;;;20.60;99.90;;;;;;5013516;28;20414;-67
2022/08/17 11:29:08;;;;;;;3.50;2.60;;;20.70;99.90;;;;;;5013648;28;20410;-67
2022/08/17 11:31:33;;;;;;;4.80;2.60;;;20.80;99.90;;;;;;5012981;28;20425;-67
2022/08/17 11:34:20;;;;;;;6.27;2.77;;;20.90;99.90;;;;;;5013407;28;20410;-67
2022/08/17 11:37:07;;;;;;;5.50;2.60;;;21.00;99.90;;;;;;5012737;28;20203;-67
2022/08/17 11:39:53;;;;;;;3.90;2.40;;;21.10;99.90;;;;;;5013555;28;20485;-70
2022/08/17 11:42:33;;;;;;;5.80;3.00;;;21.20;99.90;;;;;;5012889;28;20406;-67
2022/08/17 11:45:09;;;;;;;7.70;2.90;;;21.30;99.90;;;;;;5013147;28;20406;-67
2022/08/17 11:53:44;;;;;;;5.47;3.00;;;21.40;99.90;;;;;;5013300;28;20440;-68
2022/08/17 11:56:14;;;;;;;5.43;3.37;;;21.60;99.90;;;;;;5012951;28;20457;-68
2022/08/17 11:58:42;;;;;;;3.70;2.37;;;21.70;99.90;;;;;;5012868;28;20432;-68
2022/08/17 12:01:31;;;;;;;8.40;2.80;;;21.60;99.90;;;;;;5012145;28;20440;-67
2022/08/17 12:04:15;;;;;;;4.17;2.40;;;21.70;99.90;;;;;;5012671;28;20871;-67
2022/08/17 12:06:49;;;;;;;5.70;2.50;;;21.90;99.90;;;;;;5012561;28;20418;-68
2022/08/17 12:09:19;;;;;;;6.27;2.80;;;21.80;98.20;;;;;;5012783;28;20500;-68
2022/08/17 12:11:51;;;;;;;3.73;1.97;;;21.80;98.60;;;;;;5012343;28;20922;-68
2022/08/17 12:14:25;;;;;;;7.10;2.10;;;21.90;99.00;;;;;;5012748;28;20417;-67
2022/08/17 12:17:22;;;;;;;7.93;2.80;;;21.90;98.70;;;;;;5012614;28;20918;-67
2022/08/17 12:19:48;;;;;;;5.37;2.40;;;22.00;99.00;;;;;;5011953;28;20950;-67
2022/08/17 12:22:20;;;;;;;6.23;3.00;;;22.20;98.80;;;;;;5011962;28;20405;-67
2022/08/17 12:25:02;;;;;;;4.87;2.73;;;22.20;97.50;;;;;;5012773;28;20416;-67
2022/08/17 12:27:35;;;;;;;5.40;2.77;;;22.20;98.10;;;;;;5012699;28;20464;-67
2022/08/17 12:30:13;;;;;;;14.03;3.17;;;22.40;98.10;;;;;;5012766;28;20459;-67
2022/08/17 12:32:39;;;;;;;3.73;2.27;;;22.90;97.90;;;;;;5012345;28;20944;-67
2022/08/17 12:35:28;;;;;;;5.83;2.90;;;23.50;97.40;;;;;;5012705;28;20455;-68
2022/08/17 12:37:56;;;;;;;4.53;2.27;;;23.90;96.60;;;;;;5012694;28;20536;-67
2022/08/17 12:40:30;;;;;;;4.73;2.30;;;24.10;95.00;;;;;;5012540;28;20408;-68
2022/08/17 12:43:16;;;;;;;14.83;3.20;;;24.10;93.10;;;;;;5012098;28;20457;-68
2022/08/17 12:45:43;;;;;;;4.63;1.80;;;24.00;92.90;;;;;;5012696;28;20770;-67
2022/08/17 12:48:12;;;;;;;4.63;2.30;;;24.50;93.00;;;;;;5014005;28;20425;-68
2022/08/17 12:50:40;;;;;;;3.80;2.07;;;24.70;90.60;;;;;;5015401;28;20417;-67
2022/08/17 12:53:22;;;;;;;5.23;1.93;;;25.00;91.00;;;;;;5015973;28;20534;-67
2022/08/17 12:55:50;;;;;;;5.83;3.20;;;25.50;87.40;;;;;;5016493;28;20788;-68
2022/08/17 12:58:23;;;;;;;5.97;2.57;;;25.70;86.40;;;;;;5016207;28;20830;-68
2022/08/17 13:01:16;;;;;;;3.40;2.33;;;25.80;87.00;;;;;;5016298;28;20413;-68
2022/08/17 13:03:48;;;;;;;7.20;2.90;;;26.10;82.30;;;;;;5016001;28;20437;-68
2022/08/17 13:06:30;;;;;;;4.87;2.27;;;26.20;79.60;;;;;;5016249;28;20497;-68
2022/08/17 13:09:12;;;;;;;4.83;2.50;;;26.20;81.30;;;;;;5016191;28;20394;-67
2022/08/17 13:11:47;;;;;;;4.80;2.53;;;26.20;79.90;;;;;;5015637;28;20590;-68
2022/08/17 13:14:17;;;;;;;7.77;2.43;;;26.30;80.20;;;;;;5016029;28;20409;-68
2022/08/17 13:16:51;;;;;;;4.90;2.50;;;26.50;78.60;;;;;;5015867;28;20445;-67
2022/08/17 13:19:20;;;;;;;3.43;2.10;;;26.80;75.00;;;;;;5016017;28;20546;-68
2022/08/17 13:21:52;;;;;;;3.87;2.00;;;26.70;73.10;;;;;;5015353;28;20249;-68
2022/08/17 13:24:29;;;;;;;6.40;2.43;;;26.70;72.80;;;;;;5015771;28;20440;-68
2022/08/17 13:27:00;;;;;;;4.20;2.00;;;26.80;73.10;;;;;;5015896;28;20409;-68
2022/08/17 13:29:26;;;;;;;4.30;2.70;;;26.70;72.90;;;;;;5015916;28;20175;-68
2022/08/17 13:32:13;;;;;;;2.93;1.80;;;27.00;72.20;;;;;;5015479;28;20178;-68
2022/08/17 13:34:45;;;;;;;3.37;1.83;;;27.20;70.50;;;;;;5015589;28;20178;-68
2022/08/17 13:37:25;;;;;;;4.83;2.27;;;27.30;68.70;;;;;;5015065;28;20195;-68
2022/08/17 13:40:06;;;;;;;6.60;2.10;;;27.20;69.10;;;;;;5014879;28;20413;-68
2022/08/17 13:42:40;;;;;;;4.03;2.43;;;27.40;70.40;;;;;;5014306;28;20258;-68
2022/08/17 13:45:36;;;;;;;4.90;1.70;;;27.60;67.10;;;;;;5014995;28;20181;-68
2022/08/17 13:48:07;;;;;;;5.27;2.37;;;27.70;66.00;;;;;;5012008;28;20377;-68
2022/08/17 13:50:38;;;;;;;3.00;1.80;;;27.50;65.70;;;;;;5013536;28;20631;-68